createdAt,value
2016-02-28T00:00:09.519Z,22.7
2016-02-28T00:01:10.583Z,22.8
2016-02-28T00:02:11.944Z,22.8
2016-02-28T00:03:12.947Z,22.8
2016-02-28T00:04:14.263Z,22.8
2016-02-28T00:05:15.577Z,22.8
2016-02-28T00:06:16.893Z,22.8
2016-02-28T00:07:18.208Z,22.8
2016-02-28T00:08:19.507Z,22.7
2016-02-28T00:09:20.932Z,22.8
2016-02-28T00:10:22.248Z,22.8
2016-02-28T00:11:23.437Z,22.8
2016-02-28T00:12:24.816Z,22.8
2016-02-28T00:13:25.818Z,22.7
2016-02-28T00:14:27.259Z,22.8
2016-02-28T00:15:28.557Z,22.7
2016-02-28T00:16:29.748Z,22.7
2016-02-28T00:17:31.063Z,22.8
2016-02-28T00:18:32.378Z,22.8
2016-02-28T00:19:33.809Z,22.7
2016-02-28T00:20:35.124Z,22.8
2016-02-28T00:21:36.314Z,22.8
2016-02-28T00:22:37.707Z,22.8
2016-02-28T00:23:38.678Z,22.8
2016-02-28T00:24:39.994Z,22.8
2016-02-28T00:25:41.419Z,22.7
2016-02-28T00:26:42.890Z,22.7
2016-02-28T00:27:44.299Z,22.7
2016-02-28T00:28:45.492Z,22.8
2016-02-28T00:29:47.056Z,22.8
2016-02-28T00:30:48.747Z,22.8
2016-02-28T00:31:50.281Z,22.7
2016-02-28T00:32:52.019Z,22.8
2016-02-28T00:33:52.928Z,22.8
2016-02-28T00:34:54.430Z,22.8
2016-02-28T00:35:55.948Z,22.8
2016-02-28T00:36:57.514Z,22.8
2016-02-28T00:37:59.203Z,22.8
2016-02-28T00:39:01.050Z,22.8
2016-02-28T00:40:02.241Z,22.8
2016-02-28T00:41:03.774Z,22.8
2016-02-28T00:42:05.339Z,22.8
2016-02-28T00:43:07.076Z,22.8
2016-02-28T00:44:07.954Z,22.8
2016-02-28T00:45:09.644Z,22.8
2016-02-28T00:46:11.647Z,22.8
2016-02-28T00:47:12.650Z,22.8
2016-02-28T00:48:14.215Z,22.8
2016-02-28T00:49:15.795Z,22.7
2016-02-28T00:50:17.345Z,22.8
2016-02-28T00:51:18.926Z,22.8
2016-02-28T00:52:20.616Z,22.8
2016-02-28T00:53:22.104Z,22.8
2016-02-28T00:54:23.215Z,22.8
2016-02-28T00:55:24.859Z,22.8
2016-02-28T00:56:26.220Z,22.8
2016-02-28T00:57:27.989Z,22.8
2016-02-28T00:58:29.476Z,22.8
2016-02-28T00:59:31.151Z,22.8
2016-02-28T01:00:32.606Z,22.8
2016-02-28T01:01:34.172Z,22.8
2016-02-28T01:03:37.350Z,22.7
2016-02-28T01:04:38.242Z,22.8
2016-02-28T01:05:39.808Z,22.8
2016-02-28T01:06:41.483Z,22.8
2016-02-28T01:07:42.938Z,22.8
2016-02-28T01:08:44.628Z,22.8
2016-02-28T01:10:47.636Z,22.8
2016-02-28T01:11:49.327Z,22.8
2016-02-28T01:12:50.814Z,22.8
2016-02-28T01:13:52.504Z,22.8
2016-02-28T01:14:53.397Z,22.8
2016-02-28T01:15:54.962Z,22.8
2016-02-28T01:16:56.637Z,22.8
2016-02-28T01:17:58.186Z,22.8
2016-02-28T01:18:59.658Z,22.8
2016-02-28T01:20:01.223Z,22.8
2016-02-28T01:21:02.788Z,22.8
2016-02-28T01:22:04.353Z,22.7
2016-02-28T01:23:06.028Z,22.8
2016-02-28T01:24:07.656Z,22.7
2016-02-28T01:25:08.659Z,22.7
2016-02-28T01:26:10.098Z,22.7
2016-02-28T01:27:11.664Z,22.7
2016-02-28T01:28:13.244Z,22.7
2016-02-28T01:29:14.920Z,22.7
2016-02-28T01:30:16.375Z,22.7
2016-02-28T01:31:17.940Z,22.7
2016-02-28T01:32:19.506Z,22.7
2016-02-28T01:33:17.320Z,22.6
2016-02-28T01:34:15.089Z,22.7
2016-02-28T01:35:16.091Z,22.6
2016-02-28T01:36:13.859Z,22.6
2016-02-28T01:37:11.737Z,22.6
2016-02-28T01:38:09.506Z,22.6
2016-02-28T01:39:07.274Z,22.6
2016-02-28T01:40:05.027Z,22.6
2016-02-28T01:41:02.686Z,22.6
2016-02-28T01:42:00.704Z,22.6
2016-02-28T01:42:58.847Z,22.6
2016-02-28T01:43:56.553Z,22.6
2016-02-28T01:44:57.665Z,22.6
2016-02-28T01:45:55.683Z,22.6
2016-02-28T01:46:53.577Z,22.5
2016-02-28T01:47:51.610Z,22.5
2016-02-28T01:48:49.738Z,22.5
2016-02-28T01:49:47.379Z,22.5
2016-02-28T01:50:45.147Z,22.5
2016-02-28T01:51:42.916Z,22.5
2016-02-28T01:52:44.481Z,22.5
2016-02-28T01:53:46.218Z,22.5
2016-02-28T01:54:47.221Z,22.5
2016-02-28T01:55:48.833Z,22.5
2016-02-28T01:56:50.245Z,22.5
2016-02-28T01:57:51.918Z,22.5
2016-02-28T01:58:53.375Z,22.5
2016-02-28T01:59:54.940Z,22.5
2016-02-28T02:00:56.505Z,22.5
2016-02-28T02:01:58.070Z,22.5
2016-02-28T02:02:59.636Z,22.5
2016-02-28T02:04:01.389Z,22.5
2016-02-28T02:05:02.250Z,22.5
2016-02-28T02:06:03.815Z,22.5
2016-02-28T02:07:05.380Z,22.4
2016-02-28T02:08:06.945Z,22.5
2016-02-28T02:09:08.511Z,22.5
2016-02-28T02:10:10.076Z,22.4
2016-02-28T02:11:11.641Z,22.4
2016-02-28T02:12:13.316Z,22.5
2016-02-28T02:13:14.772Z,22.4
2016-02-28T02:14:16.383Z,22.4
2016-02-28T02:15:17.386Z,22.4
2016-02-28T02:16:18.967Z,22.4
2016-02-28T02:17:20.642Z,22.4
2016-02-28T02:18:22.082Z,22.4
2016-02-28T02:19:23.772Z,22.4
2016-02-28T02:20:25.213Z,22.4
2016-02-28T02:21:26.903Z,22.4
2016-02-28T02:22:28.343Z,22.4
2016-02-28T02:23:30.018Z,22.4
2016-02-28T02:24:31.520Z,22.4
2016-02-28T02:25:32.538Z,22.4
2016-02-28T02:26:34.104Z,22.4
2016-02-28T02:27:35.762Z,22.3
2016-02-28T02:28:36.968Z,22.3
2016-02-28T02:29:38.268Z,22.3
2016-02-28T02:30:39.709Z,22.3
2016-02-28T02:31:41.023Z,22.3
2016-02-28T02:32:42.229Z,22.3
2016-02-28T02:33:43.528Z,22.3
2016-02-28T02:34:45.015Z,22.3
2016-02-28T02:35:45.893Z,22.3
2016-02-28T02:36:47.209Z,22.3
2016-02-28T02:37:48.633Z,22.3
2016-02-28T02:38:49.823Z,22.3
2016-02-28T02:39:51.138Z,22.3
2016-02-28T02:40:52.456Z,22.3
2016-02-28T02:41:53.756Z,22.3
2016-02-28T02:42:55.087Z,22.3
2016-02-28T02:43:56.402Z,22.3
2016-02-28T02:44:57.764Z,22.3
2016-02-28T02:45:58.766Z,22.3
2016-02-28T02:47:00.191Z,22.3
2016-02-28T02:48:01.382Z,22.3
2016-02-28T02:49:02.696Z,22.3
2016-02-28T02:50:04.012Z,22.3
2016-02-28T02:51:05.311Z,22.3
2016-02-28T02:52:06.767Z,22.3
2016-02-28T02:53:08.066Z,22.3
2016-02-28T02:54:09.241Z,22.3
2016-02-28T02:55:10.619Z,22.3
2016-02-28T02:56:11.621Z,22.3
2016-02-28T02:57:12.937Z,22.3
2016-02-28T02:58:14.252Z,22.3
2016-02-28T02:59:15.551Z,22.2
2016-02-28T03:00:16.898Z,22.2
2016-02-28T03:01:18.182Z,22.2
2016-02-28T03:02:19.497Z,22.2
2016-02-28T03:03:20.828Z,22.2
2016-02-28T03:04:22.237Z,22.3
2016-02-28T03:05:23.614Z,22.2
2016-02-28T03:06:24.492Z,22.2
2016-02-28T03:07:25.808Z,22.2
2016-02-28T03:08:27.139Z,22.3
2016-02-28T03:09:28.423Z,22.2
2016-02-28T03:10:29.737Z,22.2
2016-02-28T03:11:31.053Z,22.2
2016-02-28T03:12:32.477Z,22.2
2016-02-28T03:13:33.683Z,22.2
2016-02-28T03:14:34.998Z,22.2
2016-02-28T03:15:36.469Z,22.2
2016-02-28T03:16:37.364Z,22.2
2016-02-28T03:17:38.413Z,22.2
2016-02-28T03:18:39.759Z,22.2
2016-02-28T03:19:41.043Z,22.2
2016-02-28T03:20:42.358Z,22.2
2016-02-28T03:21:43.658Z,22.2
2016-02-28T03:22:44.848Z,22.2
2016-02-28T03:23:46.147Z,22.2
2016-02-28T03:24:47.338Z,22.2
2016-02-28T03:25:48.574Z,22.2
2016-02-28T03:26:49.577Z,22.2
2016-02-28T03:27:50.783Z,22.2
2016-02-28T03:28:52.099Z,22.2
2016-02-28T03:29:53.398Z,22.2
2016-02-28T03:30:54.825Z,22.2
2016-02-28T03:31:56.156Z,22.2
2016-02-28T03:32:57.331Z,22.2
2016-02-28T03:33:58.755Z,22.2
2016-02-28T03:35:00.070Z,22.2
2016-02-28T03:36:01.323Z,22.2
2016-02-28T03:37:02.325Z,22.2
2016-02-28T03:38:03.625Z,22.2
2016-02-28T03:39:04.956Z,22.2
2016-02-28T03:40:06.255Z,22.2
2016-02-28T03:41:07.570Z,22.2
2016-02-28T03:42:08.886Z,22.2
2016-02-28T03:43:10.186Z,22.2
2016-02-28T03:44:11.625Z,22.2
2016-02-28T03:45:12.817Z,22.2
2016-02-28T03:46:14.177Z,22.2
2016-02-28T03:47:15.181Z,22.2
2016-02-28T03:48:16.622Z,22.2
2016-02-28T03:49:17.811Z,22.2
2016-02-28T03:50:19.127Z,22.2
2016-02-28T03:51:20.442Z,22.2
2016-02-28T03:52:21.741Z,22.2
2016-02-28T03:53:23.057Z,22.2
2016-02-28T03:54:24.388Z,22.2
2016-02-28T03:55:25.937Z,22.2
2016-02-28T03:56:27.565Z,22.2
2016-02-28T03:57:28.551Z,22.2
2016-02-28T03:58:30.132Z,22.2
2016-02-28T03:59:31.806Z,22.2
2016-02-28T04:00:33.246Z,22.2
2016-02-28T04:01:34.937Z,22.2
2016-02-28T04:02:36.502Z,22.2
2016-02-28T04:03:37.973Z,22.2
2016-02-28T04:04:39.529Z,22.2
2016-02-28T04:05:41.078Z,22.2
2016-02-28T04:06:42.706Z,22.2
2016-02-28T04:07:43.693Z,22.2
2016-02-28T04:08:45.399Z,22.2
2016-02-28T04:09:46.838Z,22.2
2016-02-28T04:10:48.388Z,22.2
2016-02-28T04:11:49.984Z,22.2
2016-02-28T04:12:51.519Z,22.2
2016-02-28T04:13:53.209Z,22.2
2016-02-28T04:14:54.650Z,22.2
2016-02-28T04:15:56.230Z,22.2
2016-02-28T04:16:57.861Z,22.2
2016-02-28T04:17:58.972Z,22.2
2016-02-28T04:19:00.412Z,22.2
2016-02-28T04:20:01.978Z,22.2
2016-02-28T04:21:03.543Z,22.2
2016-02-28T04:22:05.108Z,22.2
2016-02-28T04:23:06.674Z,22.2
2016-02-28T04:24:08.363Z,22.2
2016-02-28T04:25:09.804Z,22.2
2016-02-28T04:26:11.493Z,22.2
2016-02-28T04:27:12.996Z,22.2
2016-02-28T04:28:13.999Z,22.2
2016-02-28T04:29:15.580Z,22.2
2016-02-28T04:30:17.239Z,22.2
2016-02-28T04:31:18.695Z,22.2
2016-02-28T04:32:20.260Z,22.2
2016-02-28T04:33:21.825Z,22.2
2016-02-28T04:34:23.500Z,22.2
2016-02-28T04:35:25.065Z,22.2
2016-02-28T04:36:26.520Z,22.2
2016-02-28T04:37:28.258Z,22.2
2016-02-28T04:38:29.136Z,22.2
2016-02-28T04:39:30.716Z,22.2
2016-02-28T04:40:32.391Z,22.2
2016-02-28T04:41:33.847Z,22.2
2016-02-28T04:42:35.537Z,22.2
2016-02-28T04:43:36.977Z,22.2
2016-02-28T04:44:38.542Z,22.2
2016-02-28T04:45:40.108Z,22.2
2016-02-28T04:46:41.672Z,22.2
2016-02-28T04:47:43.410Z,22.2
2016-02-28T04:48:44.413Z,22.2
2016-02-28T04:49:45.852Z,22.2
2016-02-28T04:50:47.558Z,22.2
2016-02-28T04:51:49.108Z,22.2
2016-02-28T04:52:50.548Z,22.1
2016-02-28T04:53:52.113Z,22.2
2016-02-28T04:54:53.679Z,22.2
2016-02-28T04:55:55.244Z,22.2
2016-02-28T04:56:56.809Z,22.2
2016-02-28T04:57:58.437Z,22.2
2016-02-28T04:58:59.426Z,22.2
2016-02-28T05:00:01.007Z,22.1
2016-02-28T05:01:02.572Z,22.1
2016-02-28T05:02:04.138Z,22.2
2016-02-28T05:03:05.812Z,22.2
2016-02-28T05:04:07.377Z,22.2
2016-02-28T05:05:08.943Z,22.1
2016-02-28T05:06:10.382Z,22.1
2016-02-28T05:07:12.089Z,22.1
2016-02-28T05:08:13.685Z,22.1
2016-02-28T05:09:14.578Z,22.1
2016-02-28T05:10:16.253Z,22.1
2016-02-28T05:11:17.709Z,22.1
2016-02-28T05:12:19.274Z,22.1
2016-02-28T05:13:20.839Z,22.1
2016-02-28T05:14:22.419Z,22.1
2016-02-28T05:15:23.970Z,22.1
2016-02-28T05:16:25.534Z,22.1
2016-02-28T05:17:27.100Z,22.1
2016-02-28T05:18:28.836Z,22.1
2016-02-28T05:19:29.746Z,22.1
2016-02-28T05:20:31.280Z,22.1
2016-02-28T05:21:32.861Z,22.1
2016-02-28T05:22:34.425Z,22.1
2016-02-28T05:23:35.991Z,22.1
2016-02-28T05:24:37.556Z,22.1
2016-02-28T05:25:39.121Z,22.1
2016-02-28T05:26:40.686Z,22.1
2016-02-28T05:27:42.251Z,22.1
2016-02-28T05:28:43.864Z,22.1
2016-02-28T05:29:44.882Z,22.1
2016-02-28T05:30:46.463Z,22.1
2016-02-28T05:31:48.121Z,22.1
2016-02-28T05:32:49.562Z,22.1
2016-02-28T05:33:51.127Z,22.1
2016-02-28T05:34:52.848Z,22.1
2016-02-28T05:35:54.289Z,22.1
2016-02-28T05:36:55.948Z,22.1
2016-02-28T05:37:57.404Z,22.1
2016-02-28T05:38:59.015Z,22.1
2016-02-28T05:40:00.018Z,22.1
2016-02-28T05:41:01.587Z,22.1
2016-02-28T05:42:03.276Z,22.1
2016-02-28T05:43:04.826Z,22.1
2016-02-28T05:44:06.297Z,22.1
2016-02-28T05:45:07.847Z,22.1
2016-02-28T05:46:09.412Z,22.1
2016-02-28T05:47:10.977Z,22.1
2016-02-28T05:48:12.542Z,22.1
2016-02-28T05:49:14.186Z,22.1
2016-02-28T05:50:15.173Z,22.1
2016-02-28T05:51:16.738Z,22.1
2016-02-28T05:52:18.303Z,22.1
2016-02-28T05:53:19.978Z,22.1
2016-02-28T05:54:21.433Z,22.1
2016-02-28T05:55:22.999Z,22.1
2016-02-28T05:56:24.564Z,22.1
2016-02-28T05:57:26.113Z,22.1
2016-02-28T05:58:27.694Z,22.1
2016-02-28T05:59:29.307Z,22.1
2016-02-28T06:00:30.310Z,22.1
2016-02-28T06:01:31.874Z,22.1
2016-02-28T06:02:33.440Z,22.1
2016-02-28T06:03:35.004Z,22.1
2016-02-28T06:04:36.570Z,22.1
2016-02-28T06:05:38.135Z,22.1
2016-02-28T06:06:39.825Z,22.1
2016-02-28T06:07:41.265Z,22.1
2016-02-28T06:08:42.831Z,22.1
2016-02-28T06:09:44.490Z,22.1
2016-02-28T06:10:45.586Z,22.1
2016-02-28T06:11:47.136Z,22.1
2016-02-28T06:12:48.701Z,22.1
2016-02-28T06:13:50.156Z,22.1
2016-02-28T06:14:51.831Z,22.1
2016-02-28T06:15:53.411Z,22.1
2016-02-28T06:16:54.837Z,22.1
2016-02-28T06:17:56.417Z,22.1
2016-02-28T06:18:58.123Z,22.1
2016-02-28T06:19:59.611Z,22.1
2016-02-28T06:21:00.722Z,22.1
2016-02-28T06:22:02.163Z,22.1
2016-02-28T06:23:03.730Z,22.1
2016-02-28T06:24:05.311Z,22.1
2016-02-28T06:25:06.860Z,22.1
2016-02-28T06:26:08.426Z,22.1
2016-02-28T06:27:09.991Z,22.1
2016-02-28T06:28:11.682Z,22.1
2016-02-28T06:29:13.121Z,22.1
2016-02-28T06:30:14.749Z,22.1
2016-02-28T06:31:15.861Z,22.1
2016-02-28T06:32:17.318Z,22.1
2016-02-28T06:33:18.882Z,22.1
2016-02-28T06:34:20.557Z,22.1
2016-02-28T06:35:22.122Z,22.1
2016-02-28T06:36:23.579Z,22.1
2016-02-28T06:37:25.268Z,22.1
2016-02-28T06:38:26.709Z,22.1
2016-02-28T06:39:28.382Z,22.1
2016-02-28T06:40:29.885Z,22.1
2016-02-28T06:41:30.888Z,22.1
2016-02-28T06:42:32.578Z,22.1
2016-02-28T06:43:34.143Z,22.1
2016-02-28T06:44:35.600Z,22.1
2016-02-28T06:45:37.149Z,22.1
2016-02-28T06:46:38.714Z,22.1
2016-02-28T06:47:40.279Z,22.1
2016-02-28T06:48:41.953Z,22.1
2016-02-28T06:49:43.409Z,22.1
2016-02-28T06:50:45.022Z,22.1
2016-02-28T06:51:46.149Z,22.1
2016-02-28T06:52:43.809Z,22.1
2016-02-28T06:53:45.358Z,22.1
2016-02-28T06:54:46.923Z,22.1
2016-02-28T06:55:48.504Z,22.1
2016-02-28T06:56:50.053Z,22.1
2016-02-28T06:57:47.822Z,22.1
2016-02-28T06:58:45.606Z,22.1
2016-02-28T06:59:47.155Z,22.1
2016-02-28T07:00:44.971Z,22.1
2016-02-28T07:01:45.989Z,22.1
2016-02-28T07:02:47.539Z,22.1
2016-02-28T07:03:45.432Z,22.1
2016-02-28T07:04:46.982Z,22.1
2016-02-28T07:05:48.453Z,22.1
2016-02-28T07:06:46.205Z,22.1
2016-02-28T07:07:43.990Z,22.1
2016-02-28T07:08:41.726Z,22.1
2016-02-28T07:09:39.495Z,22.1
2016-02-28T07:10:37.310Z,22.1
2016-02-28T07:11:38.312Z,22.1
2016-02-28T07:12:36.081Z,22.1
2016-02-28T07:13:33.959Z,22.1
2016-02-28T07:14:31.602Z,22.1
2016-02-28T07:15:29.370Z,22.1
2016-02-28T07:16:27.138Z,22.1
2016-02-28T07:17:25.047Z,22.1
2016-02-28T07:18:22.675Z,22.1
2016-02-28T07:19:20.427Z,22.1
2016-02-28T07:20:18.258Z,22.1
2016-02-28T07:21:19.370Z,22.1
2016-02-28T07:22:17.030Z,22.2
2016-02-28T07:23:14.783Z,22.1
2016-02-28T07:24:12.660Z,22.1
2016-02-28T07:25:10.319Z,22.1
2016-02-28T07:26:08.197Z,22.2
2016-02-28T07:27:05.838Z,22.2
2016-02-28T07:28:03.606Z,22.2
2016-02-28T07:29:01.483Z,22.2
2016-02-28T07:29:59.314Z,22.1
2016-02-28T07:31:00.191Z,22.1
2016-02-28T07:31:58.210Z,22.1
2016-02-28T07:32:56.260Z,22.2
2016-02-28T07:33:54.371Z,22.1
2016-02-28T07:34:52.280Z,22.1
2016-02-28T07:35:50.283Z,22.2
2016-02-28T07:36:48.302Z,22.2
2016-02-28T07:37:46.335Z,22.2
2016-02-28T07:38:44.338Z,22.2
2016-02-28T07:39:42.419Z,22.2
2016-02-28T07:40:43.406Z,22.2
2016-02-28T07:41:41.565Z,22.2
2016-02-28T07:42:39.567Z,22.2
2016-02-28T07:43:37.587Z,22.2
2016-02-28T07:44:35.746Z,22.2
2016-02-28T07:45:34.154Z,22.2
2016-02-28T07:46:32.406Z,22.2
2016-02-28T07:47:30.676Z,22.2
2016-02-28T07:48:28.934Z,22.2
2016-02-28T07:49:27.143Z,22.2
2016-02-28T07:50:28.165Z,22.2
2016-02-28T07:51:26.391Z,22.2
2016-02-28T07:52:24.646Z,22.2
2016-02-28T07:53:22.909Z,22.2
2016-02-28T07:54:21.298Z,22.3
2016-02-28T07:55:19.563Z,22.2
2016-02-28T07:56:17.718Z,22.3
2016-02-28T07:57:16.091Z,22.2
2016-02-28T07:58:14.248Z,22.2
2016-02-28T07:59:12.577Z,22.2
2016-02-28T08:00:13.688Z,22.2
2016-02-28T08:01:11.846Z,22.2
2016-02-28T08:02:10.487Z,22.3
2016-02-28T08:03:08.661Z,22.2
2016-02-28T08:04:07.270Z,22.2
2016-02-28T08:05:05.444Z,22.2
2016-02-28T08:06:03.962Z,22.3
2016-02-28T08:07:02.605Z,22.2
2016-02-28T08:08:01.138Z,22.2
2016-02-28T08:08:59.579Z,22.2
2016-02-28T08:10:00.581Z,22.2
2016-02-28T08:10:59.130Z,22.2
2016-02-28T08:11:57.632Z,22.2
2016-02-28T08:12:56.182Z,22.2
2016-02-28T08:13:54.684Z,22.2
2016-02-28T08:14:53.218Z,22.1
2016-02-28T08:15:51.737Z,22.2
2016-02-28T08:16:50.255Z,22.2
2016-02-28T08:17:48.789Z,22.2
2016-02-28T08:18:47.369Z,22.2
2016-02-28T08:19:48.372Z,22.2
2016-02-28T08:20:46.890Z,22.2
2016-02-28T08:21:45.425Z,22.2
2016-02-28T08:22:43.943Z,22.2
2016-02-28T08:24:40.995Z,22.2
2016-02-28T08:25:39.529Z,22.2
2016-02-28T08:26:38.047Z,22.2
2016-02-28T08:27:36.580Z,22.2
2016-02-28T08:28:35.272Z,22.2
2016-02-28T08:29:36.149Z,22.2
2016-02-28T08:30:34.808Z,22.2
2016-02-28T08:31:33.201Z,22.2
2016-02-28T08:32:31.751Z,22.2
2016-02-28T08:33:30.253Z,22.2
2016-02-28T08:34:28.788Z,22.3
2016-02-28T08:35:27.307Z,22.3
2016-02-28T08:36:25.824Z,22.2
2016-02-28T08:37:24.358Z,22.3
2016-02-28T08:38:22.939Z,22.3
2016-02-28T08:39:23.942Z,22.3
2016-02-28T08:40:22.584Z,22.3
2016-02-28T08:41:21.118Z,22.4
2016-02-28T08:42:19.637Z,22.4
2016-02-28T08:43:18.046Z,22.4
2016-02-28T08:44:16.580Z,22.4
2016-02-28T08:45:14.848Z,22.4
2016-02-28T08:46:13.366Z,22.4
2016-02-28T08:47:11.760Z,22.4
2016-02-28T08:48:09.964Z,22.5
2016-02-28T08:49:10.969Z,22.5
2016-02-28T08:50:09.234Z,22.4
2016-02-28T08:51:07.503Z,22.5
2016-02-28T08:52:05.895Z,22.5
2016-02-28T08:53:04.070Z,22.5
2016-02-28T08:54:02.447Z,22.6
2016-02-28T08:55:00.591Z,22.7
2016-02-28T08:55:58.985Z,22.8
2016-02-28T08:56:57.144Z,22.8
2016-02-28T08:57:55.459Z,22.9
2016-02-28T08:58:56.446Z,23
2016-02-28T08:59:54.480Z,23.2
2016-02-28T09:00:52.498Z,23.2
2016-02-28T09:01:50.378Z,23.3
2016-02-28T09:02:48.020Z,23.4
2016-02-28T09:03:49.571Z,23.5
2016-02-28T09:04:51.261Z,23.6
2016-02-28T09:05:52.440Z,23.7
2016-02-28T09:06:53.521Z,23.7
2016-02-28T09:07:54.742Z,23.8
2016-02-28T09:08:55.620Z,23.9
2016-02-28T09:09:56.435Z,24
2016-02-28T09:10:56.969Z,24.1
2016-02-28T09:11:57.644Z,24.1
2016-02-28T09:12:58.069Z,24.2
2016-02-28T09:13:58.493Z,24.2
2016-02-28T09:14:58.417Z,24.2
2016-02-28T09:15:58.467Z,24.3
2016-02-28T09:16:58.501Z,24.3
2016-02-28T09:17:58.597Z,24.3
2016-02-28T09:18:59.600Z,24.3
2016-02-28T09:19:59.635Z,24.3
2016-02-28T09:20:59.808Z,24.3
2016-02-28T09:21:59.843Z,24.3
2016-02-28T09:22:59.768Z,24.3
2016-02-28T09:23:59.801Z,24.2
2016-02-28T09:24:59.866Z,24.2
2016-02-28T09:25:59.915Z,24.1
2016-02-28T09:26:59.935Z,24.1
2016-02-28T09:28:00.062Z,24
2016-02-28T09:29:01.018Z,23.9
2016-02-28T09:30:01.318Z,23.9
2016-02-28T09:31:01.851Z,23.9
2016-02-28T09:32:02.401Z,23.8
2016-02-28T09:33:02.934Z,23.7
2016-02-28T09:34:03.485Z,23.7
2016-02-28T09:35:04.034Z,23.6
2016-02-28T09:36:04.953Z,23.5
2016-02-28T09:37:05.911Z,23.5
2016-02-28T09:38:07.643Z,23.4
2016-02-28T09:39:08.017Z,23.3
2016-02-28T09:40:09.052Z,23.3
2016-02-28T09:41:10.351Z,23.3
2016-02-28T09:42:11.666Z,23.3
2016-02-28T09:43:12.984Z,23.2
2016-02-28T09:44:14.659Z,23.1
2016-02-28T09:45:16.208Z,23.1
2016-02-28T09:46:17.664Z,23.1
2016-02-28T09:47:19.229Z,23.1
2016-02-28T09:48:20.851Z,23.1
2016-02-28T09:49:21.964Z,23
2016-02-28T09:50:19.622Z,23
2016-02-28T09:51:17.375Z,23
2016-02-28T09:52:15.143Z,22.9
2016-02-28T09:53:12.925Z,22.9
2016-02-28T09:54:10.911Z,23
2016-02-28T09:55:08.930Z,22.9
2016-02-28T09:56:06.963Z,22.9
2016-02-28T09:57:05.107Z,22.9
2016-02-28T09:58:03.156Z,22.9
2016-02-28T09:59:04.158Z,22.9
2016-02-28T10:00:02.178Z,22.9
2016-02-28T10:01:00.071Z,22.9
2016-02-28T10:01:58.199Z,22.9
2016-02-28T10:02:56.097Z,22.8
2016-02-28T10:03:54.116Z,22.9
2016-02-28T10:04:52.134Z,22.8
2016-02-28T10:05:50.183Z,22.8
2016-02-28T10:06:48.162Z,22.8
2016-02-28T10:07:46.351Z,22.8
2016-02-28T10:08:47.245Z,22.8
2016-02-28T10:09:45.264Z,22.8
2016-02-28T10:10:43.282Z,22.8
2016-02-28T10:11:41.426Z,22.8
2016-02-28T10:12:39.569Z,22.8
2016-02-28T10:13:37.962Z,22.7
2016-02-28T10:14:36.106Z,22.7
2016-02-28T10:15:34.498Z,22.8
2016-02-28T10:16:32.658Z,22.7
2016-02-28T10:17:30.972Z,22.7
2016-02-28T10:18:31.975Z,22.8
2016-02-28T10:19:30.400Z,22.8
2016-02-28T10:20:28.528Z,22.8
2016-02-28T10:21:26.797Z,22.7
2016-02-28T10:22:25.174Z,22.7
2016-02-28T10:23:23.333Z,22.7
2016-02-28T10:24:21.601Z,22.8
2016-02-28T10:25:19.869Z,22.7
2016-02-28T10:26:18.137Z,22.7
2016-02-28T10:27:16.593Z,22.7
2016-02-28T10:28:17.471Z,22.7
2016-02-28T10:29:16.115Z,22.7
2016-02-28T10:30:14.521Z,22.7
2016-02-28T10:31:13.055Z,22.8
2016-02-28T10:32:11.588Z,22.7
2016-02-28T10:33:10.091Z,22.7
2016-02-28T10:34:08.626Z,22.7
2016-02-28T10:35:07.143Z,22.7
2016-02-28T10:36:05.787Z,22.7
2016-02-28T10:37:04.367Z,22.7
2016-02-28T10:38:05.245Z,22.7
2016-02-28T10:39:03.795Z,22.7
2016-02-28T10:40:02.345Z,22.7
2016-02-28T10:41:00.941Z,22.7
2016-02-28T10:41:59.351Z,22.7
2016-02-28T10:42:57.868Z,22.7
2016-02-28T10:43:56.403Z,22.7
2016-02-28T10:44:54.920Z,22.7
2016-02-28T10:45:53.454Z,22.7
2016-02-28T10:46:52.035Z,22.7
2016-02-28T10:47:53.147Z,22.7
2016-02-28T10:48:51.556Z,22.6
2016-02-28T10:49:50.090Z,22.7
2016-02-28T10:50:48.734Z,22.7
2016-02-28T10:51:47.127Z,22.7
2016-02-28T10:52:45.661Z,22.6
2016-02-28T10:53:44.179Z,22.6
2016-02-28T10:54:42.713Z,22.6
2016-02-28T10:55:41.230Z,22.6
2016-02-28T10:56:39.813Z,22.7
2016-02-28T10:57:40.924Z,22.7
2016-02-28T10:58:39.458Z,22.6
2016-02-28T10:59:37.866Z,22.7
2016-02-28T11:00:36.385Z,22.7
2016-02-28T11:01:35.029Z,22.7
2016-02-28T11:02:33.438Z,22.7
2016-02-28T11:03:31.957Z,22.7
2016-02-28T11:04:30.646Z,22.7
2016-02-28T11:05:29.258Z,22.8
2016-02-28T11:06:28.089Z,22.8
2016-02-28T11:07:29.076Z,22.9
2016-02-28T11:08:28.235Z,22.9
2016-02-28T11:09:27.160Z,22.9
2016-02-28T11:10:26.287Z,22.9
2016-02-28T11:11:25.196Z,22.9
2016-02-28T11:12:24.356Z,22.9
2016-02-28T11:13:23.264Z,23
2016-02-28T11:14:22.407Z,23
2016-02-28T11:15:21.441Z,23
2016-02-28T11:16:20.772Z,23.1
2016-02-28T11:17:21.665Z,23
2016-02-28T11:18:20.684Z,23.1
2016-02-28T11:19:19.842Z,23.1
2016-02-28T11:20:19.142Z,23.1
2016-02-28T11:21:17.798Z,23.1
2016-02-28T11:22:16.925Z,23.1
2016-02-28T11:23:15.836Z,23.1
2016-02-28T11:24:14.620Z,23.1
2016-02-28T11:25:13.278Z,23.1
2016-02-28T11:26:11.734Z,23.1
2016-02-28T11:27:12.846Z,23.1
2016-02-28T11:28:10.864Z,23.1
2016-02-28T11:29:08.866Z,23
2016-02-28T11:30:09.167Z,22.9
2016-02-28T11:31:10.122Z,22.8
2016-02-28T11:32:08.641Z,22.8
2016-02-28T11:33:09.690Z,22.7
2016-02-28T11:34:09.599Z,22.7
2016-02-28T11:35:08.274Z,22.6
2016-02-28T11:36:06.370Z,22.6
2016-02-28T11:37:07.326Z,22.6
2016-02-28T11:38:08.251Z,22.5
2016-02-28T11:39:08.676Z,22.5
2016-02-28T11:40:08.740Z,22.4
2016-02-28T11:41:08.259Z,22.4
2016-02-28T11:42:07.042Z,22.3
2016-02-28T11:43:05.295Z,22.2
2016-02-28T11:44:03.220Z,22.1
2016-02-28T11:45:04.629Z,22.1
2016-02-28T11:46:06.007Z,21.9
2016-02-28T11:47:07.134Z,21.8
2016-02-28T11:48:07.808Z,21.7
2016-02-28T11:49:08.373Z,21.6
2016-02-28T11:50:08.658Z,21.5
2016-02-28T11:51:08.973Z,21.3
2016-02-28T11:52:09.272Z,21.3
2016-02-28T11:53:09.306Z,21.2
2016-02-28T11:54:09.356Z,21.1
2016-02-28T11:55:09.406Z,21
2016-02-28T11:56:09.377Z,20.9
2016-02-28T11:57:10.255Z,20.9
2016-02-28T11:58:09.805Z,20.8
2016-02-28T11:59:09.197Z,20.7
2016-02-28T12:00:08.357Z,20.6
2016-02-28T12:01:07.766Z,20.6
2016-02-28T12:02:06.940Z,20.5
2016-02-28T12:03:06.099Z,20.4
2016-02-28T12:04:05.008Z,20.3
2016-02-28T12:05:03.791Z,20.2
2016-02-28T12:06:02.685Z,20.2
2016-02-28T12:07:03.641Z,20.1
2016-02-28T12:08:02.410Z,20.1
2016-02-28T12:09:01.209Z,20.1
2016-02-28T12:10:00.009Z,20.1
2016-02-28T12:10:58.557Z,20
2016-02-28T12:11:56.811Z,20
2016-02-28T12:12:55.095Z,19.9
2016-02-28T12:13:53.363Z,19.9
2016-02-28T12:14:51.631Z,19.9
2016-02-28T12:15:49.978Z,19.8
2016-02-28T12:16:50.981Z,19.7
2016-02-28T12:17:49.248Z,19.7
2016-02-28T12:18:47.517Z,19.7
2016-02-28T12:19:45.551Z,19.7
2016-02-28T12:20:43.584Z,19.6
2016-02-28T12:21:41.337Z,19.6
2016-02-28T12:22:39.106Z,19.5
2016-02-28T12:23:36.875Z,19.5
2016-02-28T12:24:34.659Z,19.4
2016-02-28T12:25:32.473Z,19.4
2016-02-28T12:26:33.476Z,19.4
2016-02-28T12:27:35.057Z,19.3
2016-02-28T12:28:36.622Z,19.3
2016-02-28T12:29:38.188Z,19.2
2016-02-28T12:30:39.769Z,19.2
2016-02-28T12:31:41.333Z,19.2
2016-02-28T12:32:43.024Z,19.2
2016-02-28T12:33:44.526Z,19.1
2016-02-28T12:34:46.044Z,19.1
2016-02-28T12:35:47.672Z,19.1
2016-02-28T12:36:48.691Z,19.1
2016-02-28T12:37:50.365Z,19.1
2016-02-28T12:38:51.696Z,19.1
2016-02-28T12:39:52.886Z,19.1
2016-02-28T12:40:54.217Z,19
2016-02-28T12:41:55.657Z,19
2016-02-28T12:42:56.973Z,19
2016-02-28T12:43:58.178Z,19
2016-02-28T12:44:59.493Z,19
2016-02-28T12:46:00.870Z,19
2016-02-28T12:47:01.873Z,19.1
2016-02-28T12:48:03.439Z,19.2
2016-02-28T12:49:05.129Z,19.3
2016-02-28T12:50:06.585Z,19.3
2016-02-28T12:51:08.165Z,19.3
2016-02-28T12:52:09.747Z,19.5
2016-02-28T12:53:11.296Z,19.5
2016-02-28T12:54:12.878Z,19.6
2016-02-28T12:55:14.442Z,19.7
2016-02-28T12:56:15.819Z,19.7
2016-02-28T12:57:16.822Z,19.7
2016-02-28T12:58:18.153Z,19.8
2016-02-28T13:00:20.784Z,19.9
2016-02-28T13:01:21.974Z,20
2016-02-28T13:02:23.041Z,20
2016-02-28T13:03:24.013Z,20.1
2016-02-28T13:04:25.047Z,20.1
2016-02-28T13:05:26.128Z,20.1
2016-02-28T13:06:27.383Z,20.2
2016-02-28T13:07:28.250Z,20.2
2016-02-28T13:08:29.221Z,20.2
2016-02-28T13:09:29.849Z,20.3
2016-02-28T13:10:30.665Z,20.3
2016-02-28T13:11:31.496Z,20.3
2016-02-28T13:12:32.295Z,20.4
2016-02-28T13:13:33.110Z,20.4
2016-02-28T13:14:33.909Z,20.4
2016-02-28T13:15:34.615Z,20.4
2016-02-28T13:16:35.088Z,20.4
2016-02-28T13:17:36.090Z,20.4
2016-02-28T13:18:36.639Z,20.5
2016-02-28T13:19:37.189Z,20.5
2016-02-28T13:20:37.753Z,20.5
2016-02-28T13:21:38.429Z,20.5
2016-02-28T13:22:38.870Z,20.5
2016-02-28T13:23:39.403Z,20.5
2016-02-28T13:24:39.734Z,20.5
2016-02-28T13:25:40.127Z,20.5
2016-02-28T13:26:40.506Z,20.5
2016-02-28T13:27:41.492Z,20.5
2016-02-28T13:28:41.806Z,20.5